createdAt,value
2023-04-15T00:00:17.328Z,102701.47
2023-04-15T00:02:50.570Z,102685.63
2023-04-15T00:05:22.203Z,102684.16
2023-04-15T00:07:53.311Z,102684.75
2023-04-15T00:10:24.925Z,102680.69
2023-04-15T00:12:56.276Z,102696.41
2023-04-15T00:15:28.803Z,102689.22
2023-04-15T00:18:00.490Z,102693.72
2023-04-15T00:20:31.914Z,102695.16
2023-04-15T00:23:04.324Z,102682.53
2023-04-15T00:25:35.748Z,102685.38
2023-04-15T00:28:07.140Z,102684.94
2023-04-15T00:30:38.478Z,102677.28
2023-04-15T00:33:10.128Z,102678.25
2023-04-15T00:35:41.295Z,102682.56
2023-04-15T00:38:12.904Z,102689.06
2023-04-15T00:40:45.810Z,102671.50
2023-04-15T00:43:17.956Z,102667.72
2023-04-15T00:45:49.329Z,102654.94
2023-04-15T00:48:21.238Z,102673.31
2023-04-15T00:50:52.690Z,102663.41
2023-04-15T00:53:23.980Z,102655.34
2023-04-15T00:55:55.793Z,102647.91
2023-04-15T00:58:29.715Z,102647.38
2023-04-15T01:01:01.569Z,102634.41
2023-04-15T01:03:34.416Z,102630.88
2023-04-15T01:06:06.347Z,102627.00
2023-04-15T01:08:37.877Z,102627.94
2023-04-15T01:11:09.658Z,102615.28
2023-04-15T01:13:41.896Z,102611.75
2023-04-15T01:16:14.668Z,102616.88
2023-04-15T01:18:46.541Z,102594.53
2023-04-15T01:21:17.873Z,102607.13
2023-04-15T01:23:50.868Z,102609.72
2023-04-15T01:26:21.724Z,102609.72
2023-04-15T01:28:53.461Z,102610.94
2023-04-15T01:31:24.673Z,102596.91
2023-04-15T01:33:55.972Z,102581.63
2023-04-15T01:36:45.475Z,102605.41
2023-04-15T01:39:17.885Z,102602.88
2023-04-15T01:41:48.709Z,102603.00
2023-04-15T01:44:21.446Z,102601.38
2023-04-15T01:46:54.240Z,102591.44
2023-04-15T01:49:27.427Z,102590.56
2023-04-15T01:51:59.907Z,102595.03
2023-04-15T01:54:32.397Z,102596.97
2023-04-15T01:57:06.995Z,102596.66
2023-04-15T01:59:39.967Z,102598.03
2023-04-15T02:02:13.030Z,102595.53
2023-04-15T02:04:46.365Z,102578.84
2023-04-15T02:07:19.254Z,102561.34
2023-04-15T02:09:51.718Z,102573.34
2023-04-15T02:12:24.170Z,102578.91
2023-04-15T02:14:57.762Z,102577.44
2023-04-15T02:17:30.866Z,102574.56
2023-04-15T02:20:03.810Z,102565.19
2023-04-15T02:22:37.498Z,102562.44
2023-04-15T02:25:10.769Z,102557.22
2023-04-15T02:27:43.487Z,102554.09
2023-04-15T02:30:16.688Z,102565.88
2023-04-15T02:32:50.553Z,102550.97
2023-04-15T02:35:23.071Z,102552.38
2023-04-15T02:37:56.711Z,102546.94
2023-04-15T02:40:29.430Z,102545.41
2023-04-15T02:43:02.378Z,102540.09
2023-04-15T02:45:35.699Z,102534.59
2023-04-15T02:48:10.114Z,102535.81
2023-04-15T02:50:43.213Z,102544.78
2023-04-15T02:53:19.062Z,102544.41
2023-04-15T02:55:52.286Z,102530.59
2023-04-15T02:58:25.315Z,102528.63
2023-04-15T03:00:58.181Z,102517.25
2023-04-15T03:03:30.942Z,102513.34
2023-04-15T03:06:03.871Z,102519.44
2023-04-15T03:08:36.728Z,102525.28
2023-04-15T03:11:13.325Z,102516.31
2023-04-15T03:13:45.979Z,102516.56
2023-04-15T03:16:30.936Z,102510.22
2023-04-15T03:19:04.192Z,102518.66
2023-04-15T03:21:38.670Z,102518.56
2023-04-15T03:24:12.241Z,102516.06
2023-04-15T03:26:44.787Z,102519.50
2023-04-15T03:29:21.005Z,102513.25
2023-04-15T03:31:54.299Z,102527.78
2023-04-15T03:34:27.121Z,102522.03
2023-04-15T03:36:59.875Z,102506.22
2023-04-15T03:39:33.257Z,102529.66
2023-04-15T03:42:06.360Z,102528.44
2023-04-15T03:44:39.125Z,102519.38
2023-04-15T03:47:11.882Z,102524.50
2023-04-15T03:49:44.796Z,102529.34
2023-04-15T03:52:17.538Z,102514.34
2023-04-15T03:54:50.060Z,102507.22
2023-04-15T03:57:22.702Z,102493.13
2023-04-15T03:59:55.874Z,102506.97
2023-04-15T04:02:29.678Z,102512.00
2023-04-15T04:05:02.499Z,102504.22
2023-04-15T04:07:35.415Z,102511.72
2023-04-15T04:10:08.755Z,102512.50
2023-04-15T04:12:41.086Z,102521.53
2023-04-15T04:15:13.899Z,102516.31
2023-04-15T04:17:46.468Z,102515.31
2023-04-15T04:20:19.126Z,102516.38
2023-04-15T04:22:51.858Z,102513.66
2023-04-15T04:25:24.515Z,102536.09
2023-04-15T04:27:57.439Z,102532.84
2023-04-15T04:30:29.958Z,102532.91
2023-04-15T04:33:02.599Z,102528.06
2023-04-15T04:35:36.415Z,102527.22
2023-04-15T04:38:09.339Z,102531.03
2023-04-15T04:40:42.757Z,102525.88
2023-04-15T04:43:16.266Z,102520.25
2023-04-15T04:45:48.996Z,102518.34
2023-04-15T04:48:21.558Z,102515.81
2023-04-15T04:50:54.680Z,102521.41
2023-04-15T04:53:27.150Z,102521.31
2023-04-15T04:55:59.886Z,102527.00
2023-04-15T04:58:32.588Z,102529.28
2023-04-15T05:01:05.963Z,102536.34
2023-04-15T05:03:40.903Z,102541.06
2023-04-15T05:06:13.345Z,102547.69
2023-04-15T05:08:46.017Z,102548.31
2023-04-15T05:11:18.537Z,102555.75
2023-04-15T05:13:51.112Z,102528.06
2023-04-15T05:16:23.843Z,102546.81
2023-04-15T05:18:56.484Z,102550.31
2023-04-15T05:21:29.313Z,102548.72
2023-04-15T05:24:02.207Z,102548.63
2023-04-15T05:26:34.584Z,102543.00
2023-04-15T05:29:07.227Z,102551.25
2023-04-15T05:31:40.850Z,102553.06
2023-04-15T05:34:13.678Z,102539.94
2023-04-15T05:36:46.359Z,102541.69
2023-04-15T05:39:18.816Z,102542.03
2023-04-15T05:41:51.481Z,102529.34
2023-04-15T05:44:24.026Z,102538.72
2023-04-15T05:46:56.489Z,102538.25
2023-04-15T05:49:29.115Z,102527.63
2023-04-15T05:52:02.164Z,102533.28
2023-04-15T05:54:34.868Z,102545.25
2023-04-15T05:57:06.972Z,102543.25
2023-04-15T05:59:40.459Z,102554.16
2023-04-15T06:02:13.501Z,102549.06
2023-04-15T06:04:45.832Z,102543.25
2023-04-15T06:07:18.184Z,102535.69
2023-04-15T06:09:51.005Z,102537.84
2023-04-15T06:12:23.659Z,102537.84
2023-04-15T06:14:56.482Z,102549.16
2023-04-15T06:17:29.511Z,102541.50
2023-04-15T06:20:01.820Z,102536.53
2023-04-15T06:22:34.380Z,102532.38
2023-04-15T06:25:07.266Z,102531.78
2023-04-15T06:27:40.536Z,102548.81
2023-04-15T06:30:13.677Z,102547.31
2023-04-15T06:32:46.326Z,102554.25
2023-04-15T06:35:19.050Z,102560.78
2023-04-15T06:37:51.456Z,102561.34
2023-04-15T06:40:23.765Z,102555.91
2023-04-15T06:42:56.230Z,102567.28
2023-04-15T06:45:28.847Z,102554.84
2023-04-15T06:48:01.511Z,102568.00
2023-04-15T06:50:34.204Z,102584.19
2023-04-15T06:53:06.418Z,102601.09
2023-04-15T06:55:38.947Z,102611.34
2023-04-15T06:58:11.373Z,102616.25
2023-04-15T07:00:43.881Z,102613.69
2023-04-15T07:03:16.819Z,102604.97
2023-04-15T07:05:49.250Z,102613.69
2023-04-15T07:08:22.448Z,102608.00
2023-04-15T07:10:55.676Z,102606.66
2023-04-15T07:13:28.670Z,102607.38
2023-04-15T07:16:01.502Z,102611.28
2023-04-15T07:18:34.219Z,102615.28
2023-04-15T07:21:07.344Z,102613.44
2023-04-15T07:23:39.743Z,102608.56
2023-04-15T07:26:12.774Z,102602.28
2023-04-15T07:28:45.322Z,102612.22
2023-04-15T07:31:18.672Z,102611.03
2023-04-15T07:33:51.266Z,102611.38
2023-04-15T07:36:23.929Z,102607.63
2023-04-15T07:38:56.783Z,102612.16
2023-04-15T07:41:29.401Z,102612.38
2023-04-15T07:44:02.031Z,102608.75
2023-04-15T07:46:36.208Z,102611.16
2023-04-15T07:49:12.188Z,102615.09
2023-04-15T07:51:45.773Z,102605.28
2023-04-15T07:54:19.372Z,102604.66
2023-04-15T07:56:52.017Z,102610.47
2023-04-15T07:59:24.483Z,102616.59
2023-04-15T08:01:56.694Z,102611.63
2023-04-15T08:04:30.247Z,102605.22
2023-04-15T08:07:02.680Z,102610.00
2023-04-15T08:09:34.999Z,102616.38
2023-04-15T08:12:07.778Z,102612.22
2023-04-15T08:14:40.434Z,102626.66
2023-04-15T08:17:12.541Z,102628.91
2023-04-15T08:19:44.728Z,102632.09
2023-04-15T08:22:18.460Z,102622.88
2023-04-15T08:24:53.582Z,102626.88
2023-04-15T08:27:26.075Z,102633.53
2023-04-15T08:29:59.151Z,102639.50
2023-04-15T08:32:31.565Z,102638.34
2023-04-15T08:35:03.932Z,102637.03
2023-04-15T08:37:36.873Z,102627.09
2023-04-15T08:40:10.767Z,102631.59
2023-04-15T08:42:51.903Z,102638.53
2023-04-15T08:45:24.969Z,102643.03
2023-04-15T08:47:58.789Z,102659.34
2023-04-15T08:50:33.146Z,102667.72
2023-04-15T08:53:05.528Z,102664.84
2023-04-15T08:55:39.468Z,102657.97
2023-04-15T08:58:13.161Z,102649.75
2023-04-15T09:00:45.700Z,102654.72
2023-04-15T09:03:19.260Z,102648.09
2023-04-15T09:05:53.402Z,102654.25
2023-04-15T09:08:25.842Z,102645.97
2023-04-15T09:10:58.377Z,102652.69
2023-04-15T09:13:31.776Z,102648.53
2023-04-15T09:16:10.841Z,102651.59
2023-04-15T09:18:44.636Z,102656.53
2023-04-15T09:21:19.078Z,102651.59
2023-04-15T09:23:59.956Z,102658.53
2023-04-15T09:26:42.348Z,102653.31
2023-04-15T09:29:20.047Z,102651.88
2023-04-15T09:31:52.921Z,102639.69
2023-04-15T09:34:38.707Z,102646.59
2023-04-15T09:37:12.967Z,102661.19
2023-04-15T09:39:54.534Z,102665.19
2023-04-15T09:42:28.263Z,102661.56
2023-04-15T09:45:14.102Z,102671.06
2023-04-15T09:47:47.205Z,102658.16
2023-04-15T09:50:20.691Z,102653.69
2023-04-15T09:52:53.174Z,102646.91
2023-04-15T09:55:25.581Z,102661.03
2023-04-15T09:57:58.028Z,102659.59
2023-04-15T10:00:32.380Z,102667.75
2023-04-15T10:03:06.517Z,102669.34
2023-04-15T10:05:39.953Z,102671.81
2023-04-15T10:08:12.955Z,102676.66
2023-04-15T10:10:46.427Z,102681.75
2023-04-15T10:13:26.938Z,102684.09
2023-04-15T10:16:09.033Z,102679.50
2023-04-15T10:18:46.268Z,102671.25
2023-04-15T10:21:20.150Z,102684.25
2023-04-15T10:23:53.734Z,102672.94
2023-04-15T10:26:26.992Z,102678.38
2023-04-15T10:29:00.809Z,102677.75
2023-04-15T10:31:33.905Z,102674.81
2023-04-15T10:34:08.071Z,102675.16
2023-04-15T10:36:41.075Z,102677.72
2023-04-15T10:39:36.560Z,102673.34
2023-04-15T10:42:19.744Z,102667.28
2023-04-15T10:44:54.015Z,102676.50
2023-04-15T10:47:26.912Z,102683.72
2023-04-15T10:50:04.114Z,102687.50
2023-04-15T10:52:35.302Z,102690.53
2023-04-15T10:55:13.264Z,102691.50
2023-04-15T10:57:46.409Z,102694.53
2023-04-15T11:00:21.264Z,102686.00
2023-04-15T11:03:09.861Z,102690.81
2023-04-15T11:05:45.386Z,102692.50
2023-04-15T11:08:18.711Z,102693.78
2023-04-15T11:10:52.806Z,102693.63
2023-04-15T11:13:28.666Z,102677.84
2023-04-15T11:16:02.991Z,102687.97
2023-04-15T11:18:36.334Z,102680.09
2023-04-15T11:21:10.841Z,102664.97
2023-04-15T11:23:51.047Z,102659.75
2023-04-15T11:26:28.869Z,102657.25
2023-04-15T11:29:02.981Z,102656.47
2023-04-15T11:31:35.550Z,102669.19
2023-04-15T11:34:08.647Z,102676.28
2023-04-15T11:36:41.642Z,102688.19
2023-04-15T11:39:14.034Z,102682.22
2023-04-15T11:41:46.640Z,102689.72
2023-04-15T11:44:20.309Z,102681.03
2023-04-15T11:46:53.318Z,102676.53
2023-04-15T11:49:32.769Z,102673.44
2023-04-15T11:52:03.998Z,102680.09
2023-04-15T11:54:35.077Z,102688.28
2023-04-15T11:57:06.446Z,102681.41
2023-04-15T11:59:47.603Z,102685.13
2023-04-15T12:02:19.648Z,102688.16
2023-04-15T12:04:50.923Z,102686.59
2023-04-15T12:07:24.134Z,102688.75
2023-04-15T12:09:59.908Z,102683.91
2023-04-15T12:12:32.446Z,102684.34
2023-04-15T12:15:03.989Z,102681.50
2023-04-15T12:17:51.312Z,102669.63
2023-04-15T12:20:28.242Z,102667.13
2023-04-15T12:23:08.568Z,102659.88
2023-04-15T12:25:40.080Z,102658.22
2023-04-15T12:28:14.412Z,102658.47
2023-04-15T12:30:55.766Z,102657.13
2023-04-15T12:33:34.806Z,102665.03
2023-04-15T12:36:07.337Z,102663.88
2023-04-15T12:38:38.595Z,102662.59
2023-04-15T12:41:09.590Z,102661.69
2023-04-15T12:43:40.954Z,102669.25
2023-04-15T12:46:12.363Z,102665.47
2023-04-15T12:48:43.665Z,102670.59
2023-04-15T12:51:15.308Z,102657.50
2023-04-15T12:53:46.471Z,102651.75
2023-04-15T12:56:21.480Z,102660.94
2023-04-15T12:58:53.196Z,102658.91
2023-04-15T13:01:24.819Z,102649.69
2023-04-15T13:03:56.385Z,102649.91
2023-04-15T13:06:27.902Z,102653.13
2023-04-15T13:08:59.529Z,102645.66
2023-04-15T13:11:38.127Z,102653.25
2023-04-15T13:14:11.282Z,102664.13
2023-04-15T13:16:42.910Z,102655.63
2023-04-15T13:19:13.557Z,102653.94
2023-04-15T13:21:45.010Z,102659.47
2023-04-15T13:24:16.475Z,102655.56
2023-04-15T13:26:50.129Z,102651.63
2023-04-15T13:29:21.744Z,102653.84
2023-04-15T13:31:53.155Z,102655.22
2023-04-15T13:34:24.775Z,102640.22
2023-04-15T13:36:56.126Z,102647.56
2023-04-15T13:39:28.140Z,102656.56
2023-04-15T13:41:59.963Z,102653.88
2023-04-15T13:44:31.110Z,102656.13
2023-04-15T13:47:02.419Z,102660.34
2023-04-15T13:49:33.937Z,102659.72
2023-04-15T13:52:05.305Z,102660.56
2023-04-15T13:54:37.749Z,102651.84
2023-04-15T13:57:09.522Z,102650.00
2023-04-15T13:59:40.856Z,102647.03
2023-04-15T14:02:12.979Z,102635.22
2023-04-15T14:04:44.779Z,102638.03
2023-04-15T14:07:16.490Z,102639.09
2023-04-15T14:09:47.930Z,102636.88
2023-04-15T14:12:19.953Z,102640.22
2023-04-15T14:14:51.441Z,102648.75
2023-04-15T14:17:22.545Z,102639.19
2023-04-15T14:19:54.114Z,102634.19
2023-04-15T14:22:25.386Z,102631.69
2023-04-15T14:24:57.055Z,102631.47
2023-04-15T14:27:28.548Z,102629.38
2023-04-15T14:30:00.545Z,102625.66
2023-04-15T14:32:34.818Z,102617.53
2023-04-15T14:35:07.213Z,102625.88
2023-04-15T14:37:38.701Z,102612.34
2023-04-15T14:40:10.632Z,102616.28
2023-04-15T14:42:42.152Z,102600.06
2023-04-15T14:45:13.774Z,102612.81
2023-04-15T14:47:45.301Z,102607.00
2023-04-15T14:50:16.460Z,102597.41
2023-04-15T14:52:48.023Z,102580.78
2023-04-15T14:55:19.471Z,102577.56
2023-04-15T14:57:50.821Z,102580.69
2023-04-15T15:00:22.377Z,102571.94
2023-04-15T15:02:53.768Z,102584.19
2023-04-15T15:05:25.261Z,102578.34
2023-04-15T15:07:56.396Z,102576.03
2023-04-15T15:10:34.652Z,102576.56
2023-04-15T15:13:20.730Z,102569.28
2023-04-15T15:15:52.038Z,102576.19
2023-04-15T15:18:23.557Z,102580.19
2023-04-15T15:20:55.049Z,102579.34
2023-04-15T15:23:26.297Z,102572.88
2023-04-15T15:25:58.092Z,102557.25
2023-04-15T15:28:29.851Z,102571.00
2023-04-15T15:31:01.467Z,102571.78
2023-04-15T15:33:32.889Z,102560.31
2023-04-15T15:36:03.962Z,102569.66
2023-04-15T15:38:35.388Z,102569.84
2023-04-15T15:41:07.373Z,102572.66
2023-04-15T15:43:38.557Z,102568.06
2023-04-15T15:46:10.358Z,102570.13
2023-04-15T15:48:41.717Z,102562.81
2023-04-15T15:51:13.186Z,102561.81
2023-04-15T15:53:46.275Z,102546.84
2023-04-15T15:56:17.983Z,102553.69
2023-04-15T15:58:49.387Z,102549.13
2023-04-15T16:01:20.666Z,102546.63
2023-04-15T16:03:52.475Z,102545.09
2023-04-15T16:06:23.596Z,102543.66
2023-04-15T16:08:54.664Z,102554.13
2023-04-15T16:11:26.280Z,102558.50
2023-04-15T16:13:58.447Z,102560.09
2023-04-15T16:16:31.480Z,102555.59
2023-04-15T16:19:02.702Z,102549.31
2023-04-15T16:21:34.435Z,102554.75
2023-04-15T16:24:05.658Z,102556.41
2023-04-15T16:26:36.854Z,102559.53
2023-04-15T16:29:08.216Z,102571.06
2023-04-15T16:31:41.544Z,102582.34
2023-04-15T16:34:13.612Z,102576.25
2023-04-15T16:36:45.156Z,102583.56
2023-04-15T16:39:16.552Z,102585.22
2023-04-15T16:41:47.608Z,102587.75
2023-04-15T16:44:19.415Z,102589.19
2023-04-15T16:46:50.534Z,102591.06
2023-04-15T16:49:22.020Z,102593.00
2023-04-15T16:51:54.632Z,102586.56
2023-04-15T16:54:25.942Z,102588.25
2023-04-15T16:57:03.457Z,102584.53
2023-04-15T16:59:34.794Z,102580.31
2023-04-15T17:02:06.397Z,102576.41
2023-04-15T17:04:37.943Z,102569.56
2023-04-15T17:07:10.257Z,102563.50
2023-04-15T17:09:42.331Z,102557.59
2023-04-15T17:12:18.554Z,102555.13
2023-04-15T17:14:50.577Z,102559.28
2023-04-15T17:17:22.810Z,102555.38
2023-04-15T17:19:55.378Z,102560.34
2023-04-15T17:22:27.879Z,102566.59
2023-04-15T17:25:00.458Z,102562.00
2023-04-15T17:27:36.782Z,102558.56
2023-04-15T17:30:16.443Z,102563.75
2023-04-15T17:34:00.050Z,102568.97
2023-04-15T17:36:20.069Z,102559.34
2023-04-15T17:39:11.082Z,102559.97
2023-04-15T17:42:01.893Z,102568.34
2023-04-15T17:44:52.738Z,102567.03
2023-04-15T17:47:43.612Z,102571.44
2023-04-15T17:50:34.564Z,102567.03
2023-04-15T17:53:25.597Z,102570.13
2023-04-15T17:56:16.836Z,102570.03
2023-04-15T17:59:08.482Z,102572.47
2023-04-15T18:02:01.225Z,102579.06
2023-04-15T18:04:52.432Z,102564.31
2023-04-15T18:07:43.292Z,102551.41
2023-04-15T18:10:36.306Z,102555.69
2023-04-15T18:13:27.366Z,102556.59
2023-04-15T18:16:18.736Z,102544.78
2023-04-15T18:19:09.593Z,102547.91
2023-04-15T18:21:40.877Z,102561.63
2023-04-15T18:24:12.617Z,102560.56
2023-04-15T18:26:44.697Z,102564.34
2023-04-15T18:29:16.932Z,102559.97
2023-04-15T18:31:48.109Z,102566.34
2023-04-15T18:34:19.506Z,102555.25
2023-04-15T18:36:50.720Z,102550.81
2023-04-15T18:39:22.083Z,102545.47
2023-04-15T18:41:53.312Z,102555.06
2023-04-15T18:44:24.284Z,102550.03
2023-04-15T18:46:55.596Z,102551.22
2023-04-15T18:49:28.814Z,102551.88
2023-04-15T18:51:59.830Z,102556.47
2023-04-15T18:54:31.064Z,102554.81
2023-04-15T18:57:02.578Z,102549.44
2023-04-15T18:59:35.143Z,102555.03
2023-04-15T19:02:08.986Z,102558.78
2023-04-15T19:04:40.444Z,102567.34
2023-04-15T19:07:11.820Z,102564.59
2023-04-15T19:09:43.916Z,102573.50
2023-04-15T19:12:15.295Z,102578.31
2023-04-15T19:14:46.385Z,102572.47
2023-04-15T19:17:18.883Z,102579.53
2023-04-15T19:19:50.199Z,102589.66
2023-04-15T19:22:21.686Z,102595.28
2023-04-15T19:24:53.914Z,102594.72
2023-04-15T19:27:26.948Z,102597.25
2023-04-15T19:29:58.288Z,102599.38
2023-04-15T19:32:29.628Z,102608.31
2023-04-15T19:35:03.254Z,102610.22
2023-04-15T19:37:34.496Z,102615.75
2023-04-15T19:40:05.589Z,102615.94
2023-04-15T19:42:37.212Z,102612.50
2023-04-15T19:45:10.832Z,102613.25
2023-04-15T19:47:47.474Z,102611.72
2023-04-15T19:50:19.277Z,102610.34
2023-04-15T19:52:50.221Z,102614.84
2023-04-15T19:55:21.960Z,102620.00
2023-04-15T19:57:53.230Z,102620.91
2023-04-15T20:00:24.452Z,102617.50
2023-04-15T20:02:58.375Z,102617.47
2023-04-15T20:05:31.580Z,102621.97
2023-04-15T20:08:05.297Z,102619.34
2023-04-15T20:10:36.989Z,102613.69
2023-04-15T20:13:07.889Z,102634.25
2023-04-15T20:15:40.652Z,102618.56
2023-04-15T20:18:15.315Z,102626.16
2023-04-15T20:20:46.856Z,102627.81
2023-04-15T20:23:18.157Z,102616.00
2023-04-15T20:25:49.149Z,102629.28
2023-04-15T20:28:20.836Z,102625.06
2023-04-15T20:30:51.690Z,102622.22
2023-04-15T20:33:23.810Z,102626.88
2023-04-15T20:35:55.481Z,102626.41
2023-04-15T20:38:27.206Z,102626.78
2023-04-15T20:40:59.656Z,102612.59
2023-04-15T20:43:31.219Z,102624.44
2023-04-15T20:46:13.426Z,102619.59
2023-04-15T20:48:51.233Z,102620.91
2023-04-15T20:51:22.529Z,102608.31
2023-04-15T20:53:53.837Z,102615.06
2023-04-15T20:56:25.541Z,102610.47
2023-04-15T20:58:56.965Z,102615.75
2023-04-15T21:01:28.441Z,102615.09
2023-04-15T21:04:00.460Z,102616.09
2023-04-15T21:06:32.304Z,102608.56
2023-04-15T21:09:02.884Z,102615.06
2023-04-15T21:11:53.278Z,102604.44
2023-04-15T21:14:26.258Z,102604.19
2023-04-15T21:16:59.179Z,102604.28
2023-04-15T21:19:31.130Z,102604.03
2023-04-15T21:22:02.574Z,102599.88
2023-04-15T21:24:33.651Z,102599.22
2023-04-15T21:27:04.832Z,102598.56
2023-04-15T21:29:36.799Z,102598.47
2023-04-15T21:32:08.220Z,102605.50
2023-04-15T21:34:39.184Z,102614.22
2023-04-15T21:37:10.482Z,102614.22
2023-04-15T21:39:41.743Z,102624.22
2023-04-15T21:42:13.361Z,102614.09
2023-04-15T21:44:44.545Z,102619.97
2023-04-15T21:47:15.619Z,102625.75
2023-04-15T21:49:47.582Z,102623.38
2023-04-15T21:52:19.285Z,102609.38
2023-04-15T21:54:50.871Z,102622.16
2023-04-15T21:57:21.910Z,102627.78
2023-04-15T21:59:53.111Z,102634.22
2023-04-15T22:02:24.577Z,102637.94
2023-04-15T22:04:56.117Z,102627.19
2023-04-15T22:07:27.875Z,102632.28
2023-04-15T22:09:58.436Z,102628.28
2023-04-15T22:12:29.544Z,102630.13
2023-04-15T22:15:01.064Z,102631.22
2023-04-15T22:17:36.414Z,102628.00
2023-04-15T22:20:09.136Z,102627.03
2023-04-15T22:22:43.360Z,102618.25
2023-04-15T22:25:17.415Z,102627.13
2023-04-15T22:27:48.868Z,102631.09
2023-04-15T22:30:20.539Z,102626.56
2023-04-15T22:32:51.923Z,102623.22
2023-04-15T22:35:23.169Z,102622.75
2023-04-15T22:37:55.342Z,102610.66
2023-04-15T22:40:27.272Z,102619.97
2023-04-15T22:42:58.428Z,102617.34
2023-04-15T22:45:29.364Z,102608.25
2023-04-15T22:48:00.810Z,102614.31
2023-04-15T22:50:32.206Z,102621.22
2023-04-15T22:53:03.773Z,102603.59
2023-04-15T22:55:35.074Z,102596.09
2023-04-15T22:58:06.302Z,102593.75
2023-04-15T23:00:37.775Z,102592.75
2023-04-15T23:03:09.577Z,102593.16
2023-04-15T23:05:42.481Z,102594.47
2023-04-15T23:08:13.976Z,102589.78
2023-04-15T23:10:46.027Z,102593.97
2023-04-15T23:13:17.949Z,102596.31
2023-04-15T23:15:49.421Z,102597.53
2023-04-15T23:18:20.729Z,102595.72
2023-04-15T23:20:52.474Z,102601.41
2023-04-15T23:23:23.766Z,102593.06
2023-04-15T23:25:54.998Z,102590.91
2023-04-15T23:28:26.455Z,102582.84
2023-04-15T23:31:00.307Z,102584.13
2023-04-15T23:33:34.144Z,102574.94
2023-04-15T23:36:06.592Z,102581.81
2023-04-15T23:38:37.837Z,102576.75
2023-04-15T23:41:08.771Z,102580.41
2023-04-15T23:43:39.923Z,102565.41
2023-04-15T23:46:11.437Z,102598.09
2023-04-15T23:48:43.408Z,102575.63
2023-04-15T23:51:14.883Z,102551.03
2023-04-15T23:53:45.956Z,102560.81
2023-04-15T23:56:17.238Z,102548.94
2023-04-15T23:58:48.617Z,102550.03
